메인 페이지
METAR-TAF:

METAR-TAF

공항 :

워싱턴 덜레스 국제공항

워싱톤, 버지니아, 미국

위도: 38-56-05N, 경도: 077-26-51W, 고도: 95m

현재 날씨관측

예보는 1 시간 7분 전, 03:52시(UTC)에 발표되었습니다.
북서19kt
온도 18°C
습도 77%
기압 1017 hPa
시정: 16.1km
고도 2000ft 상공 구름 조금
고도 3000ft 상공 구름 많음
고도 4500ft 상공 흐림

METAR: KIAD 160352Z 32019KT 10SM FEW020 BKN030 OVC045 18/14 A3004 RMK AO2 WSHFT 0242 SLP171 FROPA T01830139

시각: 00:59 (04:59 UTC)

예보

예보는 2 시간 3분 전, 02:56시(UTC)에 발표되었습니다.
예보 대상 시간: 16일 03시부터 17일 06시까지 (UTC)
북서18kt, 순간 최대 풍속 24kt
시정: 10km
고도 3500ft 상공 구름 많음
고도 5000ft 상공 흐림
시계 내 소나기
16일 0400시부터 (UTC)
북서12kt, 순간 최대 풍속 20kt
시정: 10km
고도 5000ft 상공 구름 보통
고도 10000ft 상공 구름 많음
16일 1100시부터 (UTC)
북북서8kt, 순간 최대 풍속 16kt
시정: 10km
고도 10000ft 상공 구름 보통
16일 1700시부터 (UTC)
북서8kt
시정: 10km
고도 10000ft 상공 구름 보통
16일 2200시부터 (UTC)
여러 방향의 바람 3kt
시정: 10km
고도 10000ft 상공 구름 보통
17일 0200시부터 (UTC)
4kt
시정: 10km
고도 10000ft 상공 구름 보통

TAF: KIAD 160256Z 1603/1706 32018G24KT P6SM VCSH BKN035 OVC050 FM160400 32012G20KT P6SM SCT050 BKN100 FM161100 33008G16KT P6SM SCT100 FM161700 31008KT P6SM SCT100 FM162200 VRB03KT P6SM SCT100 FM170200 19004KT P6SM SCT100

4,000개 이상의 공항 관측 자료 및 예보 (METAR 및 TAF 보고).

지도상에서 검색 가능한 기상관측소가 노란 점과 빨간 점으로 표시되어 있습니다.

기상관측소 명을 보려면 표시 위로 마우스를 이동하세요.

날씨 관측과 예보를 보려면 클릭하세요.

지도 변경 : 확대하려면 엑스 표시가 있는 녹색 버튼, 축소하려면 빼기 표시가 있는 녹색 버튼, 다음 페이지의 지도를 보려면 녹색 화살표를 클릭하세요.


METAR-TAF: